Weather at Çanakkale Çan Airfield [CLOSED]

Public forecast

Using degrees Celsius for public forecast. Weather courtesy of forecast.io.

Closest aviation weather report (METAR) to Çanakkale Çan Airfield

Closest report is Balıkesir Koca Seyit Airport, 26.1 nm (48.3 km) S. Retrieved 2022/01/21 18:50 UTC (1 hour ago):

LTFD 211850Z 07023KT 9999 SCT030 BKN100 05/03 Q1016

Closest aviation forecast (TAF) to Çanakkale Çan Airfield

Forecast is more than 12 hours old.

Closest forecast is Mytilene International Airport, 59.5 nm (110.3 km) SSW. Retrieved 2012/09/21 03:06 UTC (9 years ago):

TAF LGMT 210200Z 2103/2115 VRB05KT 9999 SCT020 BECMG 2103/2105 30015KT PROB30 TEMPO 2103/2106 7000 RA SCT018 BKN030 BECMG 2107/2109 29012KT